Terminal Aerodrome Forecast
Issued by NWS Upton, NY

Home | Current Version | Previous Version | Text Only | Print | Product List | Glossary On
Versions: 1 2 3 4 5 6 7 8 9 10 11 12 13 14 15 16 17 18 19 20 21 22 23 24 25 26 27 28 29 30 31 32 33
000
FTUS41 KOKX 182100 AAC
TAFJFK
TAF AMD
KJFK 182106Z 1821/1924 34005KT P6SM SCT070 SCT250
      TEMPO 1821/1823 21005KT
     FM190200 35010KT P6SM SCT070
     FM190600 01012G17KT P6SM SCT070
     FM191200 04013G18KT P6SM FEW050
     FM191800 09013KT P6SM SCT250
     FM192100 12012KT P6SM SCT250=

USA.gov is the U.S. government's official web portal to all federal, state and local government web resources and services.